sensor_id;sensor_type;location;lat;lon;timestamp;P1;durP1;ratioP1;P2;durP2;ratioP2
66179;SDS011;52986;44.028;20.466;2023-04-12T00:00:44;62.08;;;28.48;;
66179;SDS011;52986;44.028;20.466;2023-04-12T00:03:09;60.50;;;28.75;;
66179;SDS011;52986;44.028;20.466;2023-04-12T00:05:35;64.80;;;28.58;;
66179;SDS011;52986;44.028;20.466;2023-04-12T00:08:01;62.30;;;29.30;;
66179;SDS011;52986;44.028;20.466;2023-04-12T00:10:29;64.55;;;29.38;;
66179;SDS011;52986;44.028;20.466;2023-04-12T00:12:54;61.78;;;29.00;;
66179;SDS011;52986;44.028;20.466;2023-04-12T00:15:20;65.43;;;30.08;;
66179;SDS011;52986;44.028;20.466;2023-04-12T00:17:45;61.35;;;27.40;;
66179;SDS011;52986;44.028;20.466;2023-04-12T00:20:11;57.25;;;26.52;;
66179;SDS011;52986;44.028;20.466;2023-04-12T00:22:37;59.67;;;26.95;;
66179;SDS011;52986;44.028;20.466;2023-04-12T00:25:03;59.80;;;26.85;;
66179;SDS011;52986;44.028;20.466;2023-04-12T00:27:29;62.65;;;30.45;;
66179;SDS011;52986;44.028;20.466;2023-04-12T00:29:54;66.35;;;30.35;;
66179;SDS011;52986;44.028;20.466;2023-04-12T00:32:19;69.93;;;32.80;;
66179;SDS011;52986;44.028;20.466;2023-04-12T00:34:45;85.90;;;38.33;;
66179;SDS011;52986;44.028;20.466;2023-04-12T00:37:10;83.63;;;39.10;;
66179;SDS011;52986;44.028;20.466;2023-04-12T00:39:36;74.90;;;34.95;;
66179;SDS011;52986;44.028;20.466;2023-04-12T00:42:04;71.32;;;33.20;;
66179;SDS011;52986;44.028;20.466;2023-04-12T00:44:30;75.65;;;34.65;;
66179;SDS011;52986;44.028;20.466;2023-04-12T00:46:57;67.95;;;31.15;;
66179;SDS011;52986;44.028;20.466;2023-04-12T00:49:23;68.78;;;32.70;;
66179;SDS011;52986;44.028;20.466;2023-04-12T00:51:55;61.00;;;27.58;;
66179;SDS011;52986;44.028;20.466;2023-04-12T00:54:27;42.25;;;18.20;;
66179;SDS011;52986;44.028;20.466;2023-04-12T00:56:54;39.63;;;16.85;;
66179;SDS011;52986;44.028;20.466;2023-04-12T00:59:21;18.88;;;7.40;;
66179;SDS011;52986;44.028;20.466;2023-04-12T01:01:47;16.27;;;6.50;;
66179;SDS011;52986;44.028;20.466;2023-04-12T01:04:13;18.13;;;7.50;;
66179;SDS011;52986;44.028;20.466;2023-04-12T01:06:40;17.50;;;7.03;;
66179;SDS011;52986;44.028;20.466;2023-04-12T01:15:14;15.57;;;6.10;;
66179;SDS011;52986;44.028;20.466;2023-04-12T01:18:03;15.30;;;6.15;;
66179;SDS011;52986;44.028;20.466;2023-04-12T01:20:30;16.73;;;6.93;;
66179;SDS011;52986;44.028;20.466;2023-04-12T01:28:18;13.67;;;6.03;;
66179;SDS011;52986;44.028;20.466;2023-04-12T01:30:46;14.38;;;6.07;;
66179;SDS011;52986;44.028;20.466;2023-04-12T01:33:15;13.95;;;5.78;;
66179;SDS011;52986;44.028;20.466;2023-04-12T01:35:42;13.80;;;5.45;;
66179;SDS011;52986;44.028;20.466;2023-04-12T01:38:08;13.60;;;5.75;;
66179;SDS011;52986;44.028;20.466;2023-04-12T01:40:34;14.38;;;5.95;;
66179;SDS011;52986;44.028;20.466;2023-04-12T01:43:04;13.75;;;5.63;;
66179;SDS011;52986;44.028;20.466;2023-04-12T01:45:39;14.35;;;5.45;;
66179;SDS011;52986;44.028;20.466;2023-04-12T01:48:08;13.10;;;5.55;;
66179;SDS011;52986;44.028;20.466;2023-04-12T01:53:22;12.52;;;4.97;;
66179;SDS011;52986;44.028;20.466;2023-04-12T01:56:03;12.20;;;4.90;;
66179;SDS011;52986;44.028;20.466;2023-04-12T01:58:32;12.63;;;4.82;;
66179;SDS011;52986;44.028;20.466;2023-04-12T02:00:58;11.50;;;4.68;;
66179;SDS011;52986;44.028;20.466;2023-04-12T02:03:25;11.77;;;5.05;;
66179;SDS011;52986;44.028;20.466;2023-04-12T02:05:54;13.30;;;5.68;;
66179;SDS011;52986;44.028;20.466;2023-04-12T02:08:21;13.25;;;5.82;;
66179;SDS011;52986;44.028;20.466;2023-04-12T02:10:47;16.60;;;6.85;;
66179;SDS011;52986;44.028;20.466;2023-04-12T02:13:12;16.70;;;7.07;;
66179;SDS011;52986;44.028;20.466;2023-04-12T02:15:38;17.33;;;7.22;;
66179;SDS011;52986;44.028;20.466;2023-04-12T02:18:04;16.13;;;7.03;;
66179;SDS011;52986;44.028;20.466;2023-04-12T02:20:29;15.65;;;6.53;;
66179;SDS011;52986;44.028;20.466;2023-04-12T02:22:55;14.70;;;6.03;;
66179;SDS011;52986;44.028;20.466;2023-04-12T02:25:21;13.60;;;6.30;;
66179;SDS011;52986;44.028;20.466;2023-04-12T02:27:46;13.07;;;5.88;;
66179;SDS011;52986;44.028;20.466;2023-04-12T02:30:13;11.98;;;5.32;;
66179;SDS011;52986;44.028;20.466;2023-04-12T02:32:39;14.32;;;6.32;;
66179;SDS011;52986;44.028;20.466;2023-04-12T02:35:11;13.52;;;5.78;;
66179;SDS011;52986;44.028;20.466;2023-04-12T02:37:38;13.65;;;5.65;;
66179;SDS011;52986;44.028;20.466;2023-04-12T02:40:04;12.23;;;4.95;;
66179;SDS011;52986;44.028;20.466;2023-04-12T02:42:31;12.27;;;4.70;;
66179;SDS011;52986;44.028;20.466;2023-04-12T02:44:56;11.90;;;5.20;;
66179;SDS011;52986;44.028;20.466;2023-04-12T02:47:22;11.77;;;5.40;;
66179;SDS011;52986;44.028;20.466;2023-04-12T02:49:52;11.80;;;5.00;;
66179;SDS011;52986;44.028;20.466;2023-04-12T02:52:17;12.05;;;5.45;;
66179;SDS011;52986;44.028;20.466;2023-04-12T02:54:43;11.98;;;4.75;;
66179;SDS011;52986;44.028;20.466;2023-04-12T02:57:08;10.85;;;4.63;;
66179;SDS011;52986;44.028;20.466;2023-04-12T02:59:35;12.63;;;4.63;;
66179;SDS011;52986;44.028;20.466;2023-04-12T03:02:00;10.48;;;4.13;;
66179;SDS011;52986;44.028;20.466;2023-04-12T03:04:26;11.32;;;4.22;;
66179;SDS011;52986;44.028;20.466;2023-04-12T03:06:54;10.02;;;3.53;;
66179;SDS011;52986;44.028;20.466;2023-04-12T03:09:20;10.13;;;3.30;;
66179;SDS011;52986;44.028;20.466;2023-04-12T03:11:46;7.28;;;2.28;;
66179;SDS011;52986;44.028;20.466;2023-04-12T03:14:12;6.82;;;2.30;;
66179;SDS011;52986;44.028;20.466;2023-04-12T03:16:37;6.38;;;2.10;;
66179;SDS011;52986;44.028;20.466;2023-04-12T03:19:03;6.63;;;2.30;;
66179;SDS011;52986;44.028;20.466;2023-04-12T03:21:30;5.22;;;2.03;;
66179;SDS011;52986;44.028;20.466;2023-04-12T03:23:57;6.70;;;2.20;;
66179;SDS011;52986;44.028;20.466;2023-04-12T03:26:22;5.28;;;1.88;;
66179;SDS011;52986;44.028;20.466;2023-04-12T03:28:51;5.93;;;2.00;;
66179;SDS011;52986;44.028;20.466;2023-04-12T03:31:18;7.70;;;2.30;;
66179;SDS011;52986;44.028;20.466;2023-04-12T03:33:45;6.88;;;2.03;;
66179;SDS011;52986;44.028;20.466;2023-04-12T03:36:11;7.88;;;2.50;;
66179;SDS011;52986;44.028;20.466;2023-04-12T03:38:36;8.32;;;2.53;;
66179;SDS011;52986;44.028;20.466;2023-04-12T03:41:01;6.53;;;2.25;;
66179;SDS011;52986;44.028;20.466;2023-04-12T03:43:27;7.35;;;2.63;;
66179;SDS011;52986;44.028;20.466;2023-04-12T03:45:54;8.30;;;2.80;;
66179;SDS011;52986;44.028;20.466;2023-04-12T03:48:20;8.77;;;2.88;;
66179;SDS011;52986;44.028;20.466;2023-04-12T03:50:45;6.93;;;2.17;;
66179;SDS011;52986;44.028;20.466;2023-04-12T03:53:12;6.53;;;2.20;;
66179;SDS011;52986;44.028;20.466;2023-04-12T03:55:38;7.38;;;2.38;;
66179;SDS011;52986;44.028;20.466;2023-04-12T03:58:04;8.50;;;2.78;;
66179;SDS011;52986;44.028;20.466;2023-04-12T04:00:30;9.82;;;2.88;;
66179;SDS011;52986;44.028;20.466;2023-04-12T04:02:56;6.15;;;2.20;;
66179;SDS011;52986;44.028;20.466;2023-04-12T04:05:26;6.53;;;2.33;;
66179;SDS011;52986;44.028;20.466;2023-04-12T04:07:53;7.68;;;2.33;;
66179;SDS011;52986;44.028;20.466;2023-04-12T04:10:18;7.43;;;2.17;;
66179;SDS011;52986;44.028;20.466;2023-04-12T04:12:43;6.65;;;2.40;;
66179;SDS011;52986;44.028;20.466;2023-04-12T04:15:09;6.10;;;2.00;;
66179;SDS011;52986;44.028;20.466;2023-04-12T04:17:35;6.05;;;2.20;;
66179;SDS011;52986;44.028;20.466;2023-04-12T04:20:01;5.63;;;1.98;;
66179;SDS011;52986;44.028;20.466;2023-04-12T04:22:28;7.70;;;2.50;;
66179;SDS011;52986;44.028;20.466;2023-04-12T04:24:54;9.52;;;2.97;;
66179;SDS011;52986;44.028;20.466;2023-04-12T04:27:19;6.90;;;2.60;;
66179;SDS011;52986;44.028;20.466;2023-04-12T04:29:46;8.00;;;2.45;;
66179;SDS011;52986;44.028;20.466;2023-04-12T04:32:11;11.02;;;2.72;;
66179;SDS011;52986;44.028;20.466;2023-04-12T04:34:37;7.57;;;2.75;;
66179;SDS011;52986;44.028;20.466;2023-04-12T04:37:02;9.65;;;3.72;;
66179;SDS011;52986;44.028;20.466;2023-04-12T04:39:43;10.98;;;4.13;;
66179;SDS011;52986;44.028;20.466;2023-04-12T04:42:08;10.68;;;4.35;;
66179;SDS011;52986;44.028;20.466;2023-04-12T04:44:35;9.90;;;4.00;;
66179;SDS011;52986;44.028;20.466;2023-04-12T04:47:03;10.15;;;3.97;;
66179;SDS011;52986;44.028;20.466;2023-04-12T04:49:35;9.65;;;3.90;;
66179;SDS011;52986;44.028;20.466;2023-04-12T04:52:01;11.75;;;4.10;;
66179;SDS011;52986;44.028;20.466;2023-04-12T04:54:28;10.88;;;4.40;;
66179;SDS011;52986;44.028;20.466;2023-04-12T04:56:53;11.73;;;4.65;;
66179;SDS011;52986;44.028;20.466;2023-04-12T04:59:18;10.98;;;4.70;;
66179;SDS011;52986;44.028;20.466;2023-04-12T05:01:44;14.27;;;5.47;;
66179;SDS011;52986;44.028;20.466;2023-04-12T05:04:10;11.32;;;4.28;;
66179;SDS011;52986;44.028;20.466;2023-04-12T05:06:35;11.20;;;4.32;;
66179;SDS011;52986;44.028;20.466;2023-04-12T05:09:00;14.00;;;5.32;;
66179;SDS011;52986;44.028;20.466;2023-04-12T05:11:26;11.60;;;4.72;;
66179;SDS011;52986;44.028;20.466;2023-04-12T05:13:51;13.68;;;6.30;;
66179;SDS011;52986;44.028;20.466;2023-04-12T05:16:17;15.82;;;6.57;;
66179;SDS011;52986;44.028;20.466;2023-04-12T05:18:42;18.00;;;8.23;;
66179;SDS011;52986;44.028;20.466;2023-04-12T05:21:08;16.42;;;7.05;;
66179;SDS011;52986;44.028;20.466;2023-04-12T05:23:34;14.82;;;6.60;;
66179;SDS011;52986;44.028;20.466;2023-04-12T05:26:04;21.15;;;8.25;;
66179;SDS011;52986;44.028;20.466;2023-04-12T05:28:30;25.98;;;10.73;;
66179;SDS011;52986;44.028;20.466;2023-04-12T05:30:55;18.38;;;6.60;;
66179;SDS011;52986;44.028;20.466;2023-04-12T05:33:21;15.43;;;5.63;;
66179;SDS011;52986;44.028;20.466;2023-04-12T05:35:46;14.00;;;5.13;;
66179;SDS011;52986;44.028;20.466;2023-04-12T05:38:11;11.50;;;4.80;;
66179;SDS011;52986;44.028;20.466;2023-04-12T05:40:37;8.75;;;3.10;;
66179;SDS011;52986;44.028;20.466;2023-04-12T05:43:02;7.78;;;2.78;;
66179;SDS011;52986;44.028;20.466;2023-04-12T05:45:28;8.32;;;3.10;;
66179;SDS011;52986;44.028;20.466;2023-04-12T05:47:53;10.35;;;3.35;;
66179;SDS011;52986;44.028;20.466;2023-04-12T05:50:19;8.68;;;3.58;;
66179;SDS011;52986;44.028;20.466;2023-04-12T05:52:45;8.98;;;3.22;;
66179;SDS011;52986;44.028;20.466;2023-04-12T05:55:13;14.75;;;8.02;;
66179;SDS011;52986;44.028;20.466;2023-04-12T05:57:38;9.80;;;3.08;;
66179;SDS011;52986;44.028;20.466;2023-04-12T06:00:04;8.10;;;2.92;;
66179;SDS011;52986;44.028;20.466;2023-04-12T06:05:11;8.30;;;3.00;;
66179;SDS011;52986;44.028;20.466;2023-04-12T06:07:38;9.05;;;2.90;;
66179;SDS011;52986;44.028;20.466;2023-04-12T06:10:06;5.82;;;1.98;;
66179;SDS011;52986;44.028;20.466;2023-04-12T06:12:32;5.82;;;1.83;;
66179;SDS011;52986;44.028;20.466;2023-04-12T06:14:57;6.63;;;2.10;;
66179;SDS011;52986;44.028;20.466;2023-04-12T06:17:23;6.00;;;1.95;;
66179;SDS011;52986;44.028;20.466;2023-04-12T06:19:48;5.72;;;2.15;;
66179;SDS011;52986;44.028;20.466;2023-04-12T06:22:14;7.82;;;1.95;;
66179;SDS011;52986;44.028;20.466;2023-04-12T06:24:39;5.82;;;2.03;;
66179;SDS011;52986;44.028;20.466;2023-04-12T06:27:05;7.07;;;2.20;;
66179;SDS011;52986;44.028;20.466;2023-04-12T06:29:30;6.95;;;2.22;;
66179;SDS011;52986;44.028;20.466;2023-04-12T06:31:56;8.07;;;3.28;;
66179;SDS011;52986;44.028;20.466;2023-04-12T06:34:21;7.18;;;2.33;;
66179;SDS011;52986;44.028;20.466;2023-04-12T06:36:46;7.05;;;2.42;;
66179;SDS011;52986;44.028;20.466;2023-04-12T06:39:12;5.25;;;1.92;;
66179;SDS011;52986;44.028;20.466;2023-04-12T06:41:40;7.22;;;2.10;;
66179;SDS011;52986;44.028;20.466;2023-04-12T06:44:07;10.18;;;2.10;;
66179;SDS011;52986;44.028;20.466;2023-04-12T06:46:33;9.05;;;2.25;;
66179;SDS011;52986;44.028;20.466;2023-04-12T06:48:58;6.32;;;1.80;;
66179;SDS011;52986;44.028;20.466;2023-04-12T06:51:24;8.02;;;1.65;;
66179;SDS011;52986;44.028;20.466;2023-04-12T06:53:49;8.38;;;2.03;;
66179;SDS011;52986;44.028;20.466;2023-04-12T06:56:14;5.18;;;1.80;;
66179;SDS011;52986;44.028;20.466;2023-04-12T06:58:40;3.88;;;1.55;;
66179;SDS011;52986;44.028;20.466;2023-04-12T07:01:08;6.75;;;2.20;;
66179;SDS011;52986;44.028;20.466;2023-04-12T07:03:34;5.35;;;1.77;;
66179;SDS011;52986;44.028;20.466;2023-04-12T07:06:00;8.48;;;1.67;;
66179;SDS011;52986;44.028;20.466;2023-04-12T07:08:30;10.85;;;1.85;;
66179;SDS011;52986;44.028;20.466;2023-04-12T07:10:56;4.55;;;1.40;;
66179;SDS011;52986;44.028;20.466;2023-04-12T07:13:22;5.68;;;1.73;;
66179;SDS011;52986;44.028;20.466;2023-04-12T07:15:48;8.18;;;2.00;;
66179;SDS011;52986;44.028;20.466;2023-04-12T07:18:14;8.27;;;2.83;;
66179;SDS011;52986;44.028;20.466;2023-04-12T07:20:40;8.00;;;2.50;;
66179;SDS011;52986;44.028;20.466;2023-04-12T07:23:05;7.32;;;2.10;;
66179;SDS011;52986;44.028;20.466;2023-04-12T07:25:31;9.35;;;2.80;;
66179;SDS011;52986;44.028;20.466;2023-04-12T07:27:56;5.55;;;2.22;;
66179;SDS011;52986;44.028;20.466;2023-04-12T07:30:21;6.40;;;2.10;;
66179;SDS011;52986;44.028;20.466;2023-04-12T07:32:47;6.57;;;2.20;;
66179;SDS011;52986;44.028;20.466;2023-04-12T07:35:13;6.35;;;1.67;;
66179;SDS011;52986;44.028;20.466;2023-04-12T07:37:38;6.65;;;1.80;;
66179;SDS011;52986;44.028;20.466;2023-04-12T07:40:04;9.75;;;2.20;;
66179;SDS011;52986;44.028;20.466;2023-04-12T07:42:30;7.45;;;2.63;;
66179;SDS011;52986;44.028;20.466;2023-04-12T07:44:56;6.85;;;2.50;;
66179;SDS011;52986;44.028;20.466;2023-04-12T07:47:22;6.93;;;2.33;;
66179;SDS011;52986;44.028;20.466;2023-04-12T07:49:47;5.55;;;1.80;;
66179;SDS011;52986;44.028;20.466;2023-04-12T07:52:13;5.82;;;1.60;;
66179;SDS011;52986;44.028;20.466;2023-04-12T07:54:38;6.28;;;1.73;;
66179;SDS011;52986;44.028;20.466;2023-04-12T07:57:04;3.60;;;1.70;;
66179;SDS011;52986;44.028;20.466;2023-04-12T07:59:29;2.78;;;1.40;;
66179;SDS011;52986;44.028;20.466;2023-04-12T08:01:55;12.80;;;1.88;;
66179;SDS011;52986;44.028;20.466;2023-04-12T08:04:20;7.13;;;1.50;;
66179;SDS011;52986;44.028;20.466;2023-04-12T08:06:46;7.13;;;1.70;;
66179;SDS011;52986;44.028;20.466;2023-04-12T08:09:11;5.05;;;1.60;;
66179;SDS011;52986;44.028;20.466;2023-04-12T08:11:37;5.72;;;1.80;;
66179;SDS011;52986;44.028;20.466;2023-04-12T08:14:02;7.63;;;2.60;;
66179;SDS011;52986;44.028;20.466;2023-04-12T08:16:27;8.37;;;2.73;;
66179;SDS011;52986;44.028;20.466;2023-04-12T08:18:53;7.25;;;2.20;;
66179;SDS011;52986;44.028;20.466;2023-04-12T08:21:18;7.93;;;2.30;;
66179;SDS011;52986;44.028;20.466;2023-04-12T08:23:44;6.18;;;1.95;;
66179;SDS011;52986;44.028;20.466;2023-04-12T08:26:09;7.30;;;2.10;;
66179;SDS011;52986;44.028;20.466;2023-04-12T08:28:35;7.60;;;2.20;;
66179;SDS011;52986;44.028;20.466;2023-04-12T08:31:01;8.00;;;2.40;;
66179;SDS011;52986;44.028;20.466;2023-04-12T08:33:27;8.75;;;2.50;;
66179;SDS011;52986;44.028;20.466;2023-04-12T08:35:52;6.00;;;1.98;;
66179;SDS011;52986;44.028;20.466;2023-04-12T08:38:18;4.85;;;1.90;;
66179;SDS011;52986;44.028;20.466;2023-04-12T08:40:43;5.40;;;1.73;;
66179;SDS011;52986;44.028;20.466;2023-04-12T08:43:11;8.25;;;1.83;;
66179;SDS011;52986;44.028;20.466;2023-04-12T08:45:37;8.68;;;2.45;;
66179;SDS011;52986;44.028;20.466;2023-04-12T08:48:05;7.20;;;2.60;;
66179;SDS011;52986;44.028;20.466;2023-04-12T08:50:31;6.15;;;1.80;;
66179;SDS011;52986;44.028;20.466;2023-04-12T08:52:57;4.03;;;1.70;;
66179;SDS011;52986;44.028;20.466;2023-04-12T08:55:23;6.35;;;1.65;;
66179;SDS011;52986;44.028;20.466;2023-04-12T08:57:49;5.82;;;1.80;;
66179;SDS011;52986;44.028;20.466;2023-04-12T09:00:17;6.03;;;2.03;;
66179;SDS011;52986;44.028;20.466;2023-04-12T09:02:44;3.60;;;1.58;;
66179;SDS011;52986;44.028;20.466;2023-04-12T09:05:12;6.55;;;1.70;;
66179;SDS011;52986;44.028;20.466;2023-04-12T09:07:38;4.68;;;1.73;;
66179;SDS011;52986;44.028;20.466;2023-04-12T09:10:04;5.60;;;2.08;;
66179;SDS011;52986;44.028;20.466;2023-04-12T09:12:30;3.88;;;1.60;;
66179;SDS011;52986;44.028;20.466;2023-04-12T09:15:09;6.88;;;1.83;;
66179;SDS011;52986;44.028;20.466;2023-04-12T09:17:39;8.45;;;2.42;;
66179;SDS011;52986;44.028;20.466;2023-04-12T09:22:40;5.75;;;1.67;;
66179;SDS011;52986;44.028;20.466;2023-04-12T09:25:09;6.07;;;2.05;;
66179;SDS011;52986;44.028;20.466;2023-04-12T09:27:51;4.65;;;1.63;;
66179;SDS011;52986;44.028;20.466;2023-04-12T09:30:19;3.35;;;1.38;;
66179;SDS011;52986;44.028;20.466;2023-04-12T09:32:45;7.38;;;2.13;;
66179;SDS011;52986;44.028;20.466;2023-04-12T09:35:13;5.75;;;2.00;;
66179;SDS011;52986;44.028;20.466;2023-04-12T09:37:38;5.28;;;1.95;;
66179;SDS011;52986;44.028;20.466;2023-04-12T09:42:34;9.70;;;2.50;;
66179;SDS011;52986;44.028;20.466;2023-04-12T09:45:19;9.50;;;2.30;;
66179;SDS011;52986;44.028;20.466;2023-04-12T09:47:47;5.57;;;1.85;;
66179;SDS011;52986;44.028;20.466;2023-04-12T09:50:20;4.60;;;1.60;;
66179;SDS011;52986;44.028;20.466;2023-04-12T09:52:47;8.32;;;2.05;;
66179;SDS011;52986;44.028;20.466;2023-04-12T09:55:12;7.22;;;1.98;;
66179;SDS011;52986;44.028;20.466;2023-04-12T09:57:40;5.82;;;1.60;;
66179;SDS011;52986;44.028;20.466;2023-04-12T10:00:07;6.03;;;2.03;;
66179;SDS011;52986;44.028;20.466;2023-04-12T10:02:41;7.03;;;2.15;;
66179;SDS011;52986;44.028;20.466;2023-04-12T10:05:09;8.40;;;2.70;;
66179;SDS011;52986;44.028;20.466;2023-04-12T10:07:38;6.82;;;2.47;;
66179;SDS011;52986;44.028;20.466;2023-04-12T10:10:06;8.02;;;2.65;;
66179;SDS011;52986;44.028;20.466;2023-04-12T10:12:32;5.75;;;2.03;;
66179;SDS011;52986;44.028;20.466;2023-04-12T10:15:03;7.55;;;2.50;;
66179;SDS011;52986;44.028;20.466;2023-04-12T10:17:30;5.40;;;2.00;;
66179;SDS011;52986;44.028;20.466;2023-04-12T10:19:59;5.63;;;2.10;;
66179;SDS011;52986;44.028;20.466;2023-04-12T10:22:25;9.90;;;2.75;;
66179;SDS011;52986;44.028;20.466;2023-04-12T10:24:50;4.82;;;1.92;;
66179;SDS011;52986;44.028;20.466;2023-04-12T10:27:25;5.13;;;1.77;;
66179;SDS011;52986;44.028;20.466;2023-04-12T10:29:52;4.57;;;1.67;;
66179;SDS011;52986;44.028;20.466;2023-04-12T10:34:44;3.47;;;1.77;;
66179;SDS011;52986;44.028;20.466;2023-04-12T10:37:14;5.75;;;1.48;;
66179;SDS011;52986;44.028;20.466;2023-04-12T10:39:40;5.20;;;1.50;;
66179;SDS011;52986;44.028;20.466;2023-04-12T10:42:14;2.95;;;1.50;;
66179;SDS011;52986;44.028;20.466;2023-04-12T10:44:41;5.20;;;1.55;;
66179;SDS011;52986;44.028;20.466;2023-04-12T10:47:06;6.70;;;1.80;;
66179;SDS011;52986;44.028;20.466;2023-04-12T10:49:33;6.25;;;2.08;;
66179;SDS011;52986;44.028;20.466;2023-04-12T10:56:50;10.05;;;2.38;;
66179;SDS011;52986;44.028;20.466;2023-04-12T10:59:16;5.40;;;1.60;;
66179;SDS011;52986;44.028;20.466;2023-04-12T11:04:34;6.25;;;2.17;;
66179;SDS011;52986;44.028;20.466;2023-04-12T11:07:09;7.20;;;2.67;;
66179;SDS011;52986;44.028;20.466;2023-04-12T11:14:36;4.93;;;2.00;;
66179;SDS011;52986;44.028;20.466;2023-04-12T11:22:11;5.50;;;1.48;;
66179;SDS011;52986;44.028;20.466;2023-04-12T11:24:38;6.40;;;1.80;;
66179;SDS011;52986;44.028;20.466;2023-04-12T11:27:05;7.22;;;2.20;;
66179;SDS011;52986;44.028;20.466;2023-04-12T11:29:30;6.78;;;2.17;;
66179;SDS011;52986;44.028;20.466;2023-04-12T11:32:01;6.00;;;1.80;;
66179;SDS011;52986;44.028;20.466;2023-04-12T11:34:31;6.55;;;1.67;;
66179;SDS011;52986;44.028;20.466;2023-04-12T11:37:01;5.38;;;1.70;;
66179;SDS011;52986;44.028;20.466;2023-04-12T11:39:35;11.13;;;2.03;;
66179;SDS011;52986;44.028;20.466;2023-04-12T11:42:02;4.10;;;1.45;;
66179;SDS011;52986;44.028;20.466;2023-04-12T11:44:29;5.88;;;1.98;;
66179;SDS011;52986;44.028;20.466;2023-04-12T11:46:56;5.38;;;2.30;;
66179;SDS011;52986;44.028;20.466;2023-04-12T11:49:22;6.28;;;2.13;;
66179;SDS011;52986;44.028;20.466;2023-04-12T11:51:48;6.20;;;1.90;;
66179;SDS011;52986;44.028;20.466;2023-04-12T11:54:13;6.82;;;2.20;;
66179;SDS011;52986;44.028;20.466;2023-04-12T11:56:39;7.25;;;2.47;;
66179;SDS011;52986;44.028;20.466;2023-04-12T11:59:06;5.88;;;2.00;;
66179;SDS011;52986;44.028;20.466;2023-04-12T12:01:35;4.65;;;1.65;;
66179;SDS011;52986;44.028;20.466;2023-04-12T12:04:02;4.88;;;1.70;;
66179;SDS011;52986;44.028;20.466;2023-04-12T12:06:28;3.65;;;1.25;;
66179;SDS011;52986;44.028;20.466;2023-04-12T12:08:55;8.70;;;3.20;;
66179;SDS011;52986;44.028;20.466;2023-04-12T12:11:21;7.50;;;2.10;;
66179;SDS011;52986;44.028;20.466;2023-04-12T12:13:54;7.75;;;2.70;;
66179;SDS011;52986;44.028;20.466;2023-04-12T12:16:27;4.78;;;1.90;;
66179;SDS011;52986;44.028;20.466;2023-04-12T12:18:54;5.80;;;2.30;;
66179;SDS011;52986;44.028;20.466;2023-04-12T12:21:20;5.38;;;2.10;;
66179;SDS011;52986;44.028;20.466;2023-04-12T12:23:46;7.47;;;3.10;;
66179;SDS011;52986;44.028;20.466;2023-04-12T12:26:22;5.45;;;2.03;;
66179;SDS011;52986;44.028;20.466;2023-04-12T12:28:53;6.72;;;2.05;;
66179;SDS011;52986;44.028;20.466;2023-04-12T12:31:21;4.30;;;1.60;;
66179;SDS011;52986;44.028;20.466;2023-04-12T12:33:48;4.82;;;1.92;;
66179;SDS011;52986;44.028;20.466;2023-04-12T12:36:16;7.07;;;2.20;;
66179;SDS011;52986;44.028;20.466;2023-04-12T12:38:44;7.80;;;2.65;;
66179;SDS011;52986;44.028;20.466;2023-04-12T12:43:43;5.75;;;1.80;;
66179;SDS011;52986;44.028;20.466;2023-04-12T12:46:12;8.23;;;2.40;;
66179;SDS011;52986;44.028;20.466;2023-04-12T12:48:42;6.75;;;1.85;;
66179;SDS011;52986;44.028;20.466;2023-04-12T12:51:11;6.03;;;2.00;;
66179;SDS011;52986;44.028;20.466;2023-04-12T12:53:38;3.95;;;1.58;;
66179;SDS011;52986;44.028;20.466;2023-04-12T12:56:04;5.10;;;1.85;;
66179;SDS011;52986;44.028;20.466;2023-04-12T12:58:31;5.40;;;1.75;;
66179;SDS011;52986;44.028;20.466;2023-04-12T13:00:57;7.37;;;2.10;;
66179;SDS011;52986;44.028;20.466;2023-04-12T13:03:22;4.80;;;1.95;;
66179;SDS011;52986;44.028;20.466;2023-04-12T13:05:48;6.90;;;2.03;;
66179;SDS011;52986;44.028;20.466;2023-04-12T13:08:14;8.70;;;2.20;;
66179;SDS011;52986;44.028;20.466;2023-04-12T13:10:40;5.50;;;1.90;;
66179;SDS011;52986;44.028;20.466;2023-04-12T13:13:05;6.03;;;1.92;;
66179;SDS011;52986;44.028;20.466;2023-04-12T13:15:31;5.95;;;1.80;;
66179;SDS011;52986;44.028;20.466;2023-04-12T13:17:56;5.10;;;1.85;;
66179;SDS011;52986;44.028;20.466;2023-04-12T13:20:22;8.75;;;2.38;;
66179;SDS011;52986;44.028;20.466;2023-04-12T13:22:47;7.90;;;2.20;;
66179;SDS011;52986;44.028;20.466;2023-04-12T13:25:13;6.45;;;2.13;;
66179;SDS011;52986;44.028;20.466;2023-04-12T13:27:39;7.30;;;1.80;;
66179;SDS011;52986;44.028;20.466;2023-04-12T13:30:04;8.15;;;2.95;;
66179;SDS011;52986;44.028;20.466;2023-04-12T13:32:30;6.88;;;2.22;;
66179;SDS011;52986;44.028;20.466;2023-04-12T13:34:56;9.93;;;2.60;;
66179;SDS011;52986;44.028;20.466;2023-04-12T13:37:21;7.82;;;3.00;;
66179;SDS011;52986;44.028;20.466;2023-04-12T13:39:49;9.13;;;2.53;;
66179;SDS011;52986;44.028;20.466;2023-04-12T13:42:15;9.40;;;3.05;;
66179;SDS011;52986;44.028;20.466;2023-04-12T13:44:40;7.40;;;2.33;;
66179;SDS011;52986;44.028;20.466;2023-04-12T13:47:06;6.40;;;2.15;;
66179;SDS011;52986;44.028;20.466;2023-04-12T13:49:31;8.68;;;2.85;;
66179;SDS011;52986;44.028;20.466;2023-04-12T13:51:56;8.13;;;2.80;;
66179;SDS011;52986;44.028;20.466;2023-04-12T13:54:22;8.63;;;3.10;;
66179;SDS011;52986;44.028;20.466;2023-04-12T13:56:47;8.80;;;3.42;;
66179;SDS011;52986;44.028;20.466;2023-04-12T13:59:13;12.10;;;4.03;;
66179;SDS011;52986;44.028;20.466;2023-04-12T14:01:38;6.68;;;2.22;;
66179;SDS011;52986;44.028;20.466;2023-04-12T14:04:04;8.27;;;2.10;;
66179;SDS011;52986;44.028;20.466;2023-04-12T14:06:30;8.18;;;2.20;;
66179;SDS011;52986;44.028;20.466;2023-04-12T14:08:56;8.57;;;3.10;;
66179;SDS011;52986;44.028;20.466;2023-04-12T14:11:22;6.18;;;2.20;;
66179;SDS011;52986;44.028;20.466;2023-04-12T14:13:48;5.38;;;1.52;;
66179;SDS011;52986;44.028;20.466;2023-04-12T14:16:14;5.72;;;1.98;;
66179;SDS011;52986;44.028;20.466;2023-04-12T14:18:40;7.38;;;2.00;;
66179;SDS011;52986;44.028;20.466;2023-04-12T14:21:05;5.22;;;1.67;;
66179;SDS011;52986;44.028;20.466;2023-04-12T14:23:34;6.65;;;1.67;;
66179;SDS011;52986;44.028;20.466;2023-04-12T14:25:59;6.72;;;1.67;;
66179;SDS011;52986;44.028;20.466;2023-04-12T14:28:25;4.63;;;1.77;;
66179;SDS011;52986;44.028;20.466;2023-04-12T14:30:55;5.65;;;1.67;;
66179;SDS011;52986;44.028;20.466;2023-04-12T14:33:21;8.93;;;2.92;;
66179;SDS011;52986;44.028;20.466;2023-04-12T14:35:46;7.57;;;2.08;;
66179;SDS011;52986;44.028;20.466;2023-04-12T14:38:12;6.93;;;2.28;;
66179;SDS011;52986;44.028;20.466;2023-04-12T14:40:38;6.30;;;2.00;;
66179;SDS011;52986;44.028;20.466;2023-04-12T14:43:03;6.32;;;2.15;;
66179;SDS011;52986;44.028;20.466;2023-04-12T14:45:29;8.85;;;2.70;;
66179;SDS011;52986;44.028;20.466;2023-04-12T14:47:54;10.05;;;3.20;;
66179;SDS011;52986;44.028;20.466;2023-04-12T14:50:20;10.18;;;3.50;;
66179;SDS011;52986;44.028;20.466;2023-04-12T14:52:46;10.75;;;3.38;;
66179;SDS011;52986;44.028;20.466;2023-04-12T14:55:11;7.80;;;2.20;;
66179;SDS011;52986;44.028;20.466;2023-04-12T14:57:37;7.90;;;2.60;;
66179;SDS011;52986;44.028;20.466;2023-04-12T15:00:04;8.25;;;2.83;;
66179;SDS011;52986;44.028;20.466;2023-04-12T15:02:36;7.28;;;2.50;;
66179;SDS011;52986;44.028;20.466;2023-04-12T15:05:02;10.10;;;2.90;;
66179;SDS011;52986;44.028;20.466;2023-04-12T15:07:31;8.88;;;2.78;;
66179;SDS011;52986;44.028;20.466;2023-04-12T15:09:56;8.43;;;2.90;;